sensor_id;sensor_type;location;lat;lon;timestamp;pressure;altitude;pressure_sealevel;temperature;humidity
11525;BME280;5819;49.648;8.330;2022-07-21T00:00:17;100466.06;;;21.43;100.00
11525;BME280;5819;49.648;8.330;2022-07-21T00:02:45;100465.22;;;21.42;100.00
11525;BME280;5819;49.648;8.330;2022-07-21T00:05:14;100467.00;;;21.32;100.00
11525;BME280;5819;49.648;8.330;2022-07-21T00:07:44;100473.91;;;21.24;100.00
11525;BME280;5819;49.648;8.330;2022-07-21T00:10:13;100480.13;;;21.13;100.00
11525;BME280;5819;49.648;8.330;2022-07-21T00:12:42;100491.00;;;21.20;100.00
11525;BME280;5819;49.648;8.330;2022-07-21T00:15:12;100501.22;;;21.24;100.00
11525;BME280;5819;49.648;8.330;2022-07-21T00:17:41;100511.34;;;21.19;100.00
11525;BME280;5819;49.648;8.330;2022-07-21T00:20:10;100524.44;;;21.21;100.00
11525;BME280;5819;49.648;8.330;2022-07-21T00:22:40;100528.50;;;21.25;100.00
11525;BME280;5819;49.648;8.330;2022-07-21T00:25:11;100529.81;;;21.30;100.00
11525;BME280;5819;49.648;8.330;2022-07-21T00:27:39;100530.91;;;21.28;100.00
11525;BME280;5819;49.648;8.330;2022-07-21T00:30:09;100538.00;;;21.27;100.00
11525;BME280;5819;49.648;8.330;2022-07-21T00:32:38;100540.59;;;21.18;100.00
11525;BME280;5819;49.648;8.330;2022-07-21T00:35:08;100547.31;;;21.11;100.00
11525;BME280;5819;49.648;8.330;2022-07-21T00:37:37;100535.41;;;21.16;100.00
11525;BME280;5819;49.648;8.330;2022-07-21T00:40:06;100543.00;;;21.10;100.00
11525;BME280;5819;49.648;8.330;2022-07-21T00:42:36;100543.00;;;21.10;100.00
11525;BME280;5819;49.648;8.330;2022-07-21T00:45:05;100540.00;;;21.14;100.00
11525;BME280;5819;49.648;8.330;2022-07-21T00:47:34;100537.38;;;21.14;100.00
11525;BME280;5819;49.648;8.330;2022-07-21T00:50:06;100546.00;;;21.16;100.00
11525;BME280;5819;49.648;8.330;2022-07-21T00:52:34;100546.31;;;21.23;100.00
11525;BME280;5819;49.648;8.330;2022-07-21T00:55:03;100554.13;;;21.24;100.00
11525;BME280;5819;49.648;8.330;2022-07-21T00:57:32;100541.88;;;21.23;100.00
11525;BME280;5819;49.648;8.330;2022-07-21T01:00:03;100544.31;;;21.15;100.00
11525;BME280;5819;49.648;8.330;2022-07-21T01:02:31;100548.84;;;21.24;100.00
11525;BME280;5819;49.648;8.330;2022-07-21T01:05:03;100546.41;;;21.32;100.00
11525;BME280;5819;49.648;8.330;2022-07-21T01:07:32;100556.06;;;21.43;100.00
11525;BME280;5819;49.648;8.330;2022-07-21T01:10:00;100545.28;;;21.35;100.00
11525;BME280;5819;49.648;8.330;2022-07-21T01:12:29;100552.56;;;21.42;100.00
11525;BME280;5819;49.648;8.330;2022-07-21T01:14:57;100547.81;;;21.36;100.00
11525;BME280;5819;49.648;8.330;2022-07-21T01:17:26;100554.22;;;21.34;100.00
11525;BME280;5819;49.648;8.330;2022-07-21T01:19:54;100551.41;;;21.35;100.00
11525;BME280;5819;49.648;8.330;2022-07-21T01:22:24;100546.47;;;21.42;100.00
11525;BME280;5819;49.648;8.330;2022-07-21T01:24:52;100552.16;;;21.37;100.00
11525;BME280;5819;49.648;8.330;2022-07-21T01:27:23;100555.06;;;21.34;100.00
11525;BME280;5819;49.648;8.330;2022-07-21T01:29:52;100556.72;;;21.35;100.00
11525;BME280;5819;49.648;8.330;2022-07-21T01:32:20;100554.06;;;21.35;100.00
11525;BME280;5819;49.648;8.330;2022-07-21T01:34:48;100560.47;;;21.33;100.00
11525;BME280;5819;49.648;8.330;2022-07-21T01:37:20;100565.13;;;21.40;100.00
11525;BME280;5819;49.648;8.330;2022-07-21T01:39:50;100560.22;;;21.36;100.00
11525;BME280;5819;49.648;8.330;2022-07-21T01:42:36;100570.22;;;21.32;100.00
11525;BME280;5819;49.648;8.330;2022-07-21T01:45:06;100570.75;;;21.26;100.00
11525;BME280;5819;49.648;8.330;2022-07-21T01:47:34;100564.84;;;21.23;100.00
11525;BME280;5819;49.648;8.330;2022-07-21T01:50:03;100570.13;;;21.23;100.00
11525;BME280;5819;49.648;8.330;2022-07-21T01:52:31;100566.66;;;21.22;100.00
11525;BME280;5819;49.648;8.330;2022-07-21T01:55:01;100568.97;;;21.16;100.00
11525;BME280;5819;49.648;8.330;2022-07-21T01:57:29;100580.28;;;21.18;100.00
11525;BME280;5819;49.648;8.330;2022-07-21T01:59:57;100574.00;;;21.19;100.00
11525;BME280;5819;49.648;8.330;2022-07-21T02:02:26;100576.53;;;21.20;100.00
11525;BME280;5819;49.648;8.330;2022-07-21T02:04:54;100583.63;;;21.20;100.00
11525;BME280;5819;49.648;8.330;2022-07-21T02:07:22;100581.50;;;21.14;100.00
11525;BME280;5819;49.648;8.330;2022-07-21T02:09:50;100592.09;;;21.14;100.00
11525;BME280;5819;49.648;8.330;2022-07-21T02:12:20;100593.63;;;21.16;100.00
11525;BME280;5819;49.648;8.330;2022-07-21T02:14:48;100590.88;;;21.18;100.00
11525;BME280;5819;49.648;8.330;2022-07-21T02:17:16;100584.84;;;21.16;100.00
11525;BME280;5819;49.648;8.330;2022-07-21T02:19:44;100586.28;;;21.20;100.00
11525;BME280;5819;49.648;8.330;2022-07-21T02:22:12;100593.72;;;21.26;100.00
11525;BME280;5819;49.648;8.330;2022-07-21T02:24:40;100598.22;;;21.14;100.00
11525;BME280;5819;49.648;8.330;2022-07-21T02:27:08;100595.78;;;21.22;100.00
11525;BME280;5819;49.648;8.330;2022-07-21T02:29:38;100602.53;;;21.15;100.00
11525;BME280;5819;49.648;8.330;2022-07-21T02:32:06;100604.06;;;21.07;100.00
11525;BME280;5819;49.648;8.330;2022-07-21T02:34:35;100604.91;;;21.07;100.00
11525;BME280;5819;49.648;8.330;2022-07-21T02:37:03;100608.53;;;21.17;100.00
11525;BME280;5819;49.648;8.330;2022-07-21T02:39:31;100603.72;;;21.11;100.00
11525;BME280;5819;49.648;8.330;2022-07-21T02:41:59;100609.25;;;21.19;100.00
11525;BME280;5819;49.648;8.330;2022-07-21T02:44:28;100617.56;;;21.15;100.00
11525;BME280;5819;49.648;8.330;2022-07-21T02:46:59;100613.69;;;21.19;100.00
11525;BME280;5819;49.648;8.330;2022-07-21T02:49:27;100618.88;;;21.20;100.00
11525;BME280;5819;49.648;8.330;2022-07-21T02:51:55;100618.75;;;21.22;100.00
11525;BME280;5819;49.648;8.330;2022-07-21T02:54:23;100615.91;;;21.14;100.00
11525;BME280;5819;49.648;8.330;2022-07-21T02:56:51;100620.09;;;21.16;100.00
11525;BME280;5819;49.648;8.330;2022-07-21T02:59:19;100624.41;;;21.17;100.00
11525;BME280;5819;49.648;8.330;2022-07-21T03:01:51;100620.09;;;21.16;100.00
11525;BME280;5819;49.648;8.330;2022-07-21T03:04:21;100609.38;;;21.18;100.00
11525;BME280;5819;49.648;8.330;2022-07-21T03:06:49;100612.88;;;21.18;100.00
11525;BME280;5819;49.648;8.330;2022-07-21T03:09:17;100617.81;;;21.12;100.00
11525;BME280;5819;49.648;8.330;2022-07-21T03:11:46;100616.50;;;21.06;100.00
11525;BME280;5819;49.648;8.330;2022-07-21T03:14:14;100614.34;;;21.00;100.00
11525;BME280;5819;49.648;8.330;2022-07-21T03:16:42;100610.28;;;20.85;100.00
11525;BME280;5819;49.648;8.330;2022-07-21T03:19:10;100612.09;;;20.84;100.00
11525;BME280;5819;49.648;8.330;2022-07-21T03:21:40;100619.56;;;20.79;100.00
11525;BME280;5819;49.648;8.330;2022-07-21T03:24:08;100625.22;;;20.75;100.00
11525;BME280;5819;49.648;8.330;2022-07-21T03:26:36;100621.59;;;20.76;100.00
11525;BME280;5819;49.648;8.330;2022-07-21T03:29:05;100621.47;;;20.88;100.00
11525;BME280;5819;49.648;8.330;2022-07-21T03:31:33;100627.38;;;20.81;100.00
11525;BME280;5819;49.648;8.330;2022-07-21T03:34:01;100625.69;;;20.80;100.00
11525;BME280;5819;49.648;8.330;2022-07-21T03:36:30;100625.44;;;20.83;100.00
11525;BME280;5819;49.648;8.330;2022-07-21T03:38:59;100635.56;;;20.78;100.00
11525;BME280;5819;49.648;8.330;2022-07-21T03:41:27;100630.59;;;20.84;100.00
11525;BME280;5819;49.648;8.330;2022-07-21T03:43:55;100634.09;;;20.85;100.00
11525;BME280;5819;49.648;8.330;2022-07-21T03:46:23;100636.75;;;20.85;100.00
11525;BME280;5819;49.648;8.330;2022-07-21T03:48:52;100642.63;;;20.88;100.00
11525;BME280;5819;49.648;8.330;2022-07-21T03:51:20;100636.22;;;20.91;100.00
11525;BME280;5819;49.648;8.330;2022-07-21T03:53:48;100640.94;;;20.87;100.00
11525;BME280;5819;49.648;8.330;2022-07-21T03:56:18;100641.19;;;20.84;100.00
11525;BME280;5819;49.648;8.330;2022-07-21T03:58:46;100637.06;;;20.91;100.00
11525;BME280;5819;49.648;8.330;2022-07-21T04:01:15;100630.94;;;20.91;100.00
11525;BME280;5819;49.648;8.330;2022-07-21T04:03:44;100644.31;;;20.89;100.00
11525;BME280;5819;49.648;8.330;2022-07-21T04:06:13;100639.88;;;20.90;100.00
11525;BME280;5819;49.648;8.330;2022-07-21T04:08:41;100647.06;;;20.88;100.00
11525;BME280;5819;49.648;8.330;2022-07-21T04:11:10;100643.94;;;20.83;100.00
11525;BME280;5819;49.648;8.330;2022-07-21T04:13:42;100645.50;;;20.74;100.00
11525;BME280;5819;49.648;8.330;2022-07-21T04:16:10;100654.47;;;20.62;100.00
11525;BME280;5819;49.648;8.330;2022-07-21T04:18:38;100644.09;;;20.59;100.00
11525;BME280;5819;49.648;8.330;2022-07-21T04:21:06;100645.78;;;20.60;100.00
11525;BME280;5819;49.648;8.330;2022-07-21T04:23:34;100646.16;;;20.55;100.00
11525;BME280;5819;49.648;8.330;2022-07-21T04:26:03;100645.56;;;20.52;100.00
11525;BME280;5819;49.648;8.330;2022-07-21T04:28:31;100647.94;;;20.55;100.00
11525;BME280;5819;49.648;8.330;2022-07-21T04:31:02;100650.84;;;20.52;100.00
11525;BME280;5819;49.648;8.330;2022-07-21T04:33:30;100649.28;;;20.61;100.00
11525;BME280;5819;49.648;8.330;2022-07-21T04:36:04;100639.41;;;20.51;100.00
11525;BME280;5819;49.648;8.330;2022-07-21T04:38:32;100647.97;;;20.44;100.00
11525;BME280;5819;49.648;8.330;2022-07-21T04:41:00;100641.81;;;20.43;100.00
11525;BME280;5819;49.648;8.330;2022-07-21T04:43:28;100649.75;;;20.32;100.00
11525;BME280;5819;49.648;8.330;2022-07-21T04:45:56;100657.31;;;20.26;100.00
11525;BME280;5819;49.648;8.330;2022-07-21T04:48:26;100665.03;;;20.29;100.00
11525;BME280;5819;49.648;8.330;2022-07-21T04:50:54;100664.06;;;20.30;100.00
11525;BME280;5819;49.648;8.330;2022-07-21T04:53:22;100667.31;;;20.44;100.00
11525;BME280;5819;49.648;8.330;2022-07-21T04:55:50;100663.56;;;20.47;100.00
11525;BME280;5819;49.648;8.330;2022-07-21T04:58:19;100679.31;;;20.48;100.00
11525;BME280;5819;49.648;8.330;2022-07-21T05:00:47;100683.88;;;20.35;100.00
11525;BME280;5819;49.648;8.330;2022-07-21T05:03:15;100688.19;;;20.36;100.00
11525;BME280;5819;49.648;8.330;2022-07-21T05:05:45;100681.47;;;20.43;100.00
11525;BME280;5819;49.648;8.330;2022-07-21T05:08:13;100680.88;;;20.51;100.00
11525;BME280;5819;49.648;8.330;2022-07-21T05:10:42;100689.03;;;20.59;100.00
11525;BME280;5819;49.648;8.330;2022-07-21T05:13:10;100679.56;;;20.57;100.00
11525;BME280;5819;49.648;8.330;2022-07-21T05:15:38;100691.31;;;20.64;100.00
11525;BME280;5819;49.648;8.330;2022-07-21T05:18:07;100691.47;;;20.62;100.00
11525;BME280;5819;49.648;8.330;2022-07-21T05:20:35;100691.69;;;20.59;100.00
11525;BME280;5819;49.648;8.330;2022-07-21T05:23:05;100701.19;;;20.62;100.00
11525;BME280;5819;49.648;8.330;2022-07-21T05:25:35;100693.47;;;20.59;100.00
11525;BME280;5819;49.648;8.330;2022-07-21T05:28:05;100698.06;;;20.57;100.00
11525;BME280;5819;49.648;8.330;2022-07-21T05:30:34;100701.06;;;20.52;100.00
11525;BME280;5819;49.648;8.330;2022-07-21T05:33:02;100690.84;;;20.47;100.00
11525;BME280;5819;49.648;8.330;2022-07-21T05:35:30;100686.16;;;20.40;100.00
11525;BME280;5819;49.648;8.330;2022-07-21T05:37:58;100681.81;;;20.39;100.00
11525;BME280;5819;49.648;8.330;2022-07-21T05:40:28;100679.91;;;20.41;100.00
11525;BME280;5819;49.648;8.330;2022-07-21T05:42:56;100686.75;;;20.32;100.00
11525;BME280;5819;49.648;8.330;2022-07-21T05:45:23;100691.78;;;20.35;100.00
11525;BME280;5819;49.648;8.330;2022-07-21T05:47:52;100693.84;;;20.43;100.00
11525;BME280;5819;49.648;8.330;2022-07-21T05:50:20;100690.59;;;20.50;100.00
11525;BME280;5819;49.648;8.330;2022-07-21T05:52:48;100686.28;;;20.61;100.00
11525;BME280;5819;49.648;8.330;2022-07-21T05:55:16;100686.78;;;20.66;100.00
11525;BME280;5819;49.648;8.330;2022-07-21T05:57:46;100687.97;;;20.73;100.00
11525;BME280;5819;49.648;8.330;2022-07-21T06:00:15;100689.38;;;20.88;100.00
11525;BME280;5819;49.648;8.330;2022-07-21T06:02:44;100695.50;;;20.99;100.00
11525;BME280;5819;49.648;8.330;2022-07-21T06:05:13;100703.53;;;21.09;100.00
11525;BME280;5819;49.648;8.330;2022-07-21T06:07:42;100704.25;;;21.11;100.00
11525;BME280;5819;49.648;8.330;2022-07-21T06:10:11;100711.00;;;21.15;100.00
11525;BME280;5819;49.648;8.330;2022-07-21T06:12:42;100712.69;;;21.16;100.00
11525;BME280;5819;49.648;8.330;2022-07-21T06:15:14;100718.84;;;21.17;100.00
11525;BME280;5819;49.648;8.330;2022-07-21T06:17:44;100720.63;;;21.16;100.00
11525;BME280;5819;49.648;8.330;2022-07-21T06:20:13;100718.91;;;21.37;100.00
11525;BME280;5819;49.648;8.330;2022-07-21T06:22:43;100713.34;;;21.40;100.00
11525;BME280;5819;49.648;8.330;2022-07-21T06:25:11;100709.66;;;21.32;100.00
11525;BME280;5819;49.648;8.330;2022-07-21T06:27:40;100712.19;;;21.33;100.00
11525;BME280;5819;49.648;8.330;2022-07-21T06:30:10;100709.34;;;21.14;100.00
11525;BME280;5819;49.648;8.330;2022-07-21T06:32:40;100716.78;;;21.20;100.00
11525;BME280;5819;49.648;8.330;2022-07-21T06:35:09;100723.66;;;21.12;100.00
11525;BME280;5819;49.648;8.330;2022-07-21T06:37:38;100720.53;;;21.18;99.84
11525;BME280;5819;49.648;8.330;2022-07-21T06:40:09;100718.69;;;21.29;100.00
11525;BME280;5819;49.648;8.330;2022-07-21T06:42:38;100721.91;;;21.33;100.00
11525;BME280;5819;49.648;8.330;2022-07-21T06:45:28;100726.03;;;21.26;100.00
11525;BME280;5819;49.648;8.330;2022-07-21T06:48:03;100721.56;;;21.37;100.00
11525;BME280;5819;49.648;8.330;2022-07-21T06:50:32;100727.03;;;21.57;100.00
11525;BME280;5819;49.648;8.330;2022-07-21T06:53:00;100740.09;;;21.37;94.63
11525;BME280;5819;49.648;8.330;2022-07-21T06:55:28;100732.59;;;21.42;100.00
11525;BME280;5819;49.648;8.330;2022-07-21T06:57:57;100738.34;;;21.47;100.00
11525;BME280;5819;49.648;8.330;2022-07-21T07:00:25;100745.91;;;21.84;91.54
11525;BME280;5819;49.648;8.330;2022-07-21T07:02:53;100741.69;;;21.92;88.39
11525;BME280;5819;49.648;8.330;2022-07-21T07:05:23;100750.44;;;21.72;90.64
11525;BME280;5819;49.648;8.330;2022-07-21T07:07:55;100744.09;;;21.96;92.42
11525;BME280;5819;49.648;8.330;2022-07-21T07:10:23;100741.22;;;21.87;95.90
11525;BME280;5819;49.648;8.330;2022-07-21T07:12:51;100748.91;;;21.90;92.93
11525;BME280;5819;49.648;8.330;2022-07-21T07:15:40;100747.78;;;22.04;90.67
11525;BME280;5819;49.648;8.330;2022-07-21T07:18:09;100757.03;;;22.10;85.71
11525;BME280;5819;49.648;8.330;2022-07-21T07:20:39;100748.94;;;22.11;89.20
11525;BME280;5819;49.648;8.330;2022-07-21T07:23:08;100749.09;;;22.30;92.94
11525;BME280;5819;49.648;8.330;2022-07-21T07:25:36;100748.53;;;22.78;90.47
11525;BME280;5819;49.648;8.330;2022-07-21T07:28:05;100746.75;;;22.88;86.02
11525;BME280;5819;49.648;8.330;2022-07-21T07:30:35;100751.50;;;22.64;84.79
11525;BME280;5819;49.648;8.330;2022-07-21T07:33:04;100756.16;;;23.02;85.03
11525;BME280;5819;49.648;8.330;2022-07-21T07:35:33;100754.28;;;23.32;84.87
11525;BME280;5819;49.648;8.330;2022-07-21T07:38:03;100755.00;;;23.35;82.54
11525;BME280;5819;49.648;8.330;2022-07-21T07:40:31;100755.97;;;23.33;82.03
11525;BME280;5819;49.648;8.330;2022-07-21T07:42:59;100760.91;;;23.57;83.01
11525;BME280;5819;49.648;8.330;2022-07-21T07:45:34;100754.53;;;23.20;79.78
11525;BME280;5819;49.648;8.330;2022-07-21T07:48:03;100764.41;;;23.08;78.54
11525;BME280;5819;49.648;8.330;2022-07-21T07:50:32;100756.72;;;23.45;77.58
11525;BME280;5819;49.648;8.330;2022-07-21T07:53:02;100760.63;;;23.60;78.34
11525;BME280;5819;49.648;8.330;2022-07-21T07:55:31;100760.50;;;24.00;80.03
11525;BME280;5819;49.648;8.330;2022-07-21T07:57:59;100756.28;;;24.07;79.07
11525;BME280;5819;49.648;8.330;2022-07-21T08:00:27;100754.91;;;24.13;78.01
11525;BME280;5819;49.648;8.330;2022-07-21T08:03:15;100754.25;;;24.67;76.40
11525;BME280;5819;49.648;8.330;2022-07-21T08:05:44;100756.69;;;24.51;74.96
11525;BME280;5819;49.648;8.330;2022-07-21T08:08:16;100762.47;;;24.27;75.07
11525;BME280;5819;49.648;8.330;2022-07-21T08:10:45;100760.06;;;24.34;73.28
11525;BME280;5819;49.648;8.330;2022-07-21T08:13:15;100759.53;;;23.63;74.16
11525;BME280;5819;49.648;8.330;2022-07-21T08:15:44;100758.47;;;23.35;74.61
11525;BME280;5819;49.648;8.330;2022-07-21T08:18:14;100750.69;;;23.43;76.25
11525;BME280;5819;49.648;8.330;2022-07-21T08:20:43;100754.00;;;23.36;76.68
11525;BME280;5819;49.648;8.330;2022-07-21T08:23:11;100754.75;;;23.57;76.56
11525;BME280;5819;49.648;8.330;2022-07-21T08:25:42;100749.19;;;23.50;75.52
11525;BME280;5819;49.648;8.330;2022-07-21T08:28:11;100753.59;;;23.30;75.94
11525;BME280;5819;49.648;8.330;2022-07-21T08:30:40;100751.34;;;22.86;77.94
11525;BME280;5819;49.648;8.330;2022-07-21T08:33:11;100754.63;;;22.69;78.38
11525;BME280;5819;49.648;8.330;2022-07-21T08:35:39;100757.91;;;22.82;79.44
11525;BME280;5819;49.648;8.330;2022-07-21T08:38:08;100754.16;;;23.34;77.42
11525;BME280;5819;49.648;8.330;2022-07-21T08:40:39;100744.84;;;23.97;74.66
11525;BME280;5819;49.648;8.330;2022-07-21T08:43:10;100748.34;;;23.98;73.59
11525;BME280;5819;49.648;8.330;2022-07-21T08:45:40;100747.50;;;24.16;73.48
11525;BME280;5819;49.648;8.330;2022-07-21T08:48:08;100743.56;;;24.30;70.86
11525;BME280;5819;49.648;8.330;2022-07-21T08:50:39;100730.63;;;24.54;69.89
11525;BME280;5819;49.648;8.330;2022-07-21T08:53:07;100727.69;;;24.94;72.99
11525;BME280;5819;49.648;8.330;2022-07-21T08:55:37;100729.34;;;25.40;70.44
11525;BME280;5819;49.648;8.330;2022-07-21T08:58:09;100739.56;;;25.45;67.83
11525;BME280;5819;49.648;8.330;2022-07-21T09:00:39;100733.28;;;25.19;65.78
11525;BME280;5819;49.648;8.330;2022-07-21T09:03:10;100725.41;;;24.62;67.21
11525;BME280;5819;49.648;8.330;2022-07-21T09:05:39;100733.94;;;24.66;69.15
11525;BME280;5819;49.648;8.330;2022-07-21T09:08:07;100730.50;;;24.83;65.95
11525;BME280;5819;49.648;8.330;2022-07-21T09:10:36;100732.16;;;24.94;65.69
11525;BME280;5819;49.648;8.330;2022-07-21T09:13:06;100725.63;;;25.15;65.37
11525;BME280;5819;49.648;8.330;2022-07-21T09:15:36;100726.69;;;25.23;67.54
11525;BME280;5819;49.648;8.330;2022-07-21T09:18:08;100722.16;;;25.68;67.22
11525;BME280;5819;49.648;8.330;2022-07-21T09:20:45;100715.91;;;25.95;66.92
11525;BME280;5819;49.648;8.330;2022-07-21T09:23:17;100713.50;;;26.09;66.57
11525;BME280;5819;49.648;8.330;2022-07-21T09:25:48;100719.88;;;26.17;63.71
11525;BME280;5819;49.648;8.330;2022-07-21T09:28:18;100713.72;;;26.68;63.33
11525;BME280;5819;49.648;8.330;2022-07-21T09:30:50;100719.13;;;26.24;64.04
11525;BME280;5819;49.648;8.330;2022-07-21T09:33:28;100716.69;;;25.25;64.93
11525;BME280;5819;49.648;8.330;2022-07-21T09:36:04;100720.13;;;24.80;67.65
11525;BME280;5819;49.648;8.330;2022-07-21T09:38:34;100723.25;;;24.39;66.19
11525;BME280;5819;49.648;8.330;2022-07-21T09:41:08;100727.19;;;24.71;67.55
11525;BME280;5819;49.648;8.330;2022-07-21T09:43:39;100728.59;;;26.01;62.34
11525;BME280;5819;49.648;8.330;2022-07-21T09:46:14;100719.22;;;27.00;60.36
11525;BME280;5819;49.648;8.330;2022-07-21T09:48:45;100716.69;;;27.57;60.24
11525;BME280;5819;49.648;8.330;2022-07-21T09:51:36;100723.38;;;27.53;55.20
11525;BME280;5819;49.648;8.330;2022-07-21T09:54:09;100717.53;;;27.98;55.24
11525;BME280;5819;49.648;8.330;2022-07-21T09:56:39;100726.91;;;27.85;55.98
11525;BME280;5819;49.648;8.330;2022-07-21T09:59:09;100720.41;;;27.88;57.39
11525;BME280;5819;49.648;8.330;2022-07-21T10:01:38;100712.59;;;29.44;53.02
11525;BME280;5819;49.648;8.330;2022-07-21T10:04:07;100715.44;;;29.11;53.41
11525;BME280;5819;49.648;8.330;2022-07-21T10:06:38;100724.88;;;27.47;57.18
11525;BME280;5819;49.648;8.330;2022-07-21T10:09:08;100721.13;;;26.48;57.45
11525;BME280;5819;49.648;8.330;2022-07-21T10:11:39;100721.47;;;28.66;51.36
11525;BME280;5819;49.648;8.330;2022-07-21T10:14:08;100714.28;;;29.06;51.41
11525;BME280;5819;49.648;8.330;2022-07-21T10:16:39;100721.41;;;30.50;46.83
11525;BME280;5819;49.648;8.330;2022-07-21T10:19:22;100725.91;;;32.29;44.30
11525;BME280;5819;49.648;8.330;2022-07-21T10:21:55;100713.22;;;31.38;43.42
11525;BME280;5819;49.648;8.330;2022-07-21T10:24:29;100719.06;;;30.91;44.05
11525;BME280;5819;49.648;8.330;2022-07-21T10:27:03;100723.38;;;30.04;47.05
11525;BME280;5819;49.648;8.330;2022-07-21T10:29:57;100714.34;;;31.07;44.56
11525;BME280;5819;49.648;8.330;2022-07-21T10:32:34;100709.38;;;31.62;42.99
11525;BME280;5819;49.648;8.330;2022-07-21T10:35:26;100716.03;;;29.75;46.80
11525;BME280;5819;49.648;8.330;2022-07-21T10:37:55;100714.38;;;29.97;45.34
11525;BME280;5819;49.648;8.330;2022-07-21T10:40:40;100712.03;;;29.94;44.86
11525;BME280;5819;49.648;8.330;2022-07-21T10:43:37;100709.84;;;31.50;42.08
11525;BME280;5819;49.648;8.330;2022-07-21T10:46:34;100707.72;;;31.25;42.15
11525;BME280;5819;49.648;8.330;2022-07-21T10:49:08;100710.91;;;30.40;44.76
11525;BME280;5819;49.648;8.330;2022-07-21T10:51:38;100697.91;;;32.02;41.14
11525;BME280;5819;49.648;8.330;2022-07-21T10:54:20;100693.41;;;33.19;38.47
11525;BME280;5819;49.648;8.330;2022-07-21T10:57:25;100700.31;;;29.72;46.28
11525;BME280;5819;49.648;8.330;2022-07-21T11:00:17;100695.03;;;32.31;42.55
11525;BME280;5819;49.648;8.330;2022-07-21T11:02:49;100690.50;;;32.38;42.40
11525;BME280;5819;49.648;8.330;2022-07-21T11:05:20;100695.41;;;34.17;39.23
11525;BME280;5819;49.648;8.330;2022-07-21T11:08:08;100692.88;;;32.14;41.37
11525;BME280;5819;49.648;8.330;2022-07-21T11:10:37;100682.69;;;32.09;43.07
11525;BME280;5819;49.648;8.330;2022-07-21T11:13:06;100690.41;;;33.81;38.68
11525;BME280;5819;49.648;8.330;2022-07-21T11:15:46;100687.13;;;33.05;40.26
11525;BME280;5819;49.648;8.330;2022-07-21T11:18:18;100691.44;;;33.67;41.30
11525;BME280;5819;49.648;8.330;2022-07-21T11:21:05;100683.69;;;34.43;38.33
11525;BME280;5819;49.648;8.330;2022-07-21T11:23:38;100689.25;;;34.67;37.49
11525;BME280;5819;49.648;8.330;2022-07-21T11:26:07;100681.31;;;34.79;36.43
11525;BME280;5819;49.648;8.330;2022-07-21T11:28:36;100675.91;;;35.23;36.37
11525;BME280;5819;49.648;8.330;2022-07-21T11:31:07;100674.72;;;34.62;35.88
11525;BME280;5819;49.648;8.330;2022-07-21T11:33:36;100676.31;;;32.99;38.05
11525;BME280;5819;49.648;8.330;2022-07-21T11:36:07;100672.44;;;31.13;42.11
11525;BME280;5819;49.648;8.330;2022-07-21T11:39:04;100664.03;;;33.83;39.32
11525;BME280;5819;49.648;8.330;2022-07-21T11:41:33;100667.97;;;35.29;38.28
11525;BME280;5819;49.648;8.330;2022-07-21T11:44:03;100665.69;;;32.84;41.07
11525;BME280;5819;49.648;8.330;2022-07-21T11:46:47;100664.06;;;32.55;40.65
11525;BME280;5819;49.648;8.330;2022-07-21T11:49:15;100660.16;;;31.95;41.40
11525;BME280;5819;49.648;8.330;2022-07-21T11:51:53;100659.22;;;33.59;39.64
11525;BME280;5819;49.648;8.330;2022-07-21T11:54:28;100670.34;;;30.79;43.41
11525;BME280;5819;49.648;8.330;2022-07-21T11:56:58;100659.66;;;29.38;44.63
11525;BME280;5819;49.648;8.330;2022-07-21T11:59:27;100662.56;;;28.97;47.29
11525;BME280;5819;49.648;8.330;2022-07-21T12:01:59;100668.53;;;29.38;44.85
11525;BME280;5819;49.648;8.330;2022-07-21T12:04:31;100653.84;;;29.26;46.66
11525;BME280;5819;49.648;8.330;2022-07-21T12:07:04;100658.91;;;29.52;46.09
11525;BME280;5819;49.648;8.330;2022-07-21T12:09:33;100653.09;;;29.63;45.77
11525;BME280;5819;49.648;8.330;2022-07-21T12:12:02;100641.63;;;30.80;43.25
11525;BME280;5819;49.648;8.330;2022-07-21T12:14:41;100642.31;;;32.16;40.52
11525;BME280;5819;49.648;8.330;2022-07-21T12:17:10;100649.84;;;30.93;43.27
11525;BME280;5819;49.648;8.330;2022-07-21T12:19:38;100654.41;;;29.67;44.54
11525;BME280;5819;49.648;8.330;2022-07-21T12:22:08;100641.56;;;30.14;44.22
11525;BME280;5819;49.648;8.330;2022-07-21T12:25:04;100643.31;;;31.59;41.35
11525;BME280;5819;49.648;8.330;2022-07-21T12:27:35;100645.44;;;30.41;41.76
11525;BME280;5819;49.648;8.330;2022-07-21T12:30:06;100643.03;;;29.42;45.06
11525;BME280;5819;49.648;8.330;2022-07-21T12:32:41;100656.13;;;28.83;45.47
11525;BME280;5819;49.648;8.330;2022-07-21T12:35:18;100640.13;;;29.29;44.08
11525;BME280;5819;49.648;8.330;2022-07-21T12:38:04;100642.19;;;28.96;44.75
11525;BME280;5819;49.648;8.330;2022-07-21T12:40:35;100642.31;;;28.64;47.19
11525;BME280;5819;49.648;8.330;2022-07-21T12:43:14;100646.66;;;29.26;44.02
11525;BME280;5819;49.648;8.330;2022-07-21T12:45:48;100639.53;;;30.60;41.51
11525;BME280;5819;49.648;8.330;2022-07-21T12:48:17;100626.44;;;32.68;38.64
11525;BME280;5819;49.648;8.330;2022-07-21T12:51:06;100631.69;;;31.80;38.92
11525;BME280;5819;49.648;8.330;2022-07-21T12:53:41;100631.28;;;31.55;40.41
11525;BME280;5819;49.648;8.330;2022-07-21T12:56:10;100630.38;;;31.48;40.71
11525;BME280;5819;49.648;8.330;2022-07-21T12:58:39;100640.09;;;31.06;40.02
11525;BME280;5819;49.648;8.330;2022-07-21T13:01:08;100627.16;;;31.80;39.96
11525;BME280;5819;49.648;8.330;2022-07-21T13:03:37;100627.19;;;32.49;39.21
11525;BME280;5819;49.648;8.330;2022-07-21T13:06:06;100622.13;;;31.49;38.93
11525;BME280;5819;49.648;8.330;2022-07-21T13:08:38;100626.19;;;31.67;39.91
11525;BME280;5819;49.648;8.330;2022-07-21T13:11:07;100628.25;;;32.14;39.29
11525;BME280;5819;49.648;8.330;2022-07-21T13:13:35;100639.25;;;30.26;42.43